Time;durP1;ratioP1;P1;durP2;ratioP2;P2;SDS_P1;SDS_P2;PMS_P1;PMS_P2;Temp;Humidity;BMP_temperature;BMP_pressure;BME280_temperature;BME280_humidity;BME280_pressure;Samples;Min_cycle;Max_cycle;Signal;HPM_P1;HPM_P2
2023/03/19 00:01:40;;;;;;;;;7.67;7.67;;;;;18.12;100.00;100802.97;5082048;27;45306;-79
2023/03/19 00:04:06;;;;;;;;;9.67;8.00;;;;;18.15;100.00;100799.00;5081113;28;45287;-79
2023/03/19 00:06:32;;;;;;;;;7.67;7.67;;;;;18.10;100.00;100791.59;5081217;28;46111;-79
2023/03/19 00:08:57;;;;;;;;;9.33;9.33;;;;;18.10;100.00;100790.72;5081397;27;45348;-78
2023/03/19 00:11:22;;;;;;;;;8.67;8.00;;;;;18.07;100.00;100796.59;5080266;28;45398;-79
2023/03/19 00:13:47;;;;;;;;;9.00;9.00;;;;;18.15;100.00;100804.38;5080617;27;54198;-79
2023/03/19 00:16:13;;;;;;;;;9.00;9.00;;;;;18.19;100.00;100812.81;5079874;28;55501;-79
2023/03/19 00:18:38;;;;;;;;;10.00;10.00;;;;;18.13;100.00;100798.38;5080975;28;49099;-79
2023/03/19 00:21:04;;;;;;;;;8.67;7.67;;;;;18.24;100.00;100808.41;5080094;28;45374;-79
2023/03/19 00:23:30;;;;;;;;;8.33;8.33;;;;;18.27;100.00;100813.34;5079415;28;46990;-80
2023/03/19 00:25:55;;;;;;;;;9.67;9.00;;;;;18.27;100.00;100824.09;5080870;27;46019;-79
2023/03/19 00:28:20;;;;;;;;;5.00;5.00;;;;;18.17;100.00;100804.97;5080798;27;45287;-79
2023/03/19 00:30:46;;;;;;;;;7.00;7.00;;;;;18.21;100.00;100806.16;5081354;27;45343;-79
2023/03/19 00:33:11;;;;;;;;;9.00;9.00;;;;;18.22;100.00;100805.13;5079411;28;46996;-79
2023/03/19 00:35:39;;;;;;;;;9.33;9.33;;;;;18.10;100.00;100801.47;5081010;28;45344;-79
2023/03/19 00:38:04;;;;;;;;;7.67;7.67;;;;;18.04;100.00;100792.44;5079678;28;45948;-80
2023/03/19 00:40:29;;;;;;;;;7.33;6.33;;;;;17.97;100.00;100797.91;5081392;27;45239;-79
2023/03/19 00:42:55;;;;;;;;;9.00;9.00;;;;;18.00;100.00;100805.53;5080533;27;45467;-80
2023/03/19 00:45:20;;;;;;;;;7.33;7.33;;;;;17.92;100.00;100808.50;5079167;28;47932;-79
2023/03/19 00:47:45;;;;;;;;;7.67;7.33;;;;;17.86;100.00;100812.06;5079227;28;45302;-79
2023/03/19 00:50:11;;;;;;;;;7.00;7.00;;;;;17.85;100.00;100821.19;5096683;27;45340;-80
2023/03/19 00:52:36;;;;;;;;;5.67;5.67;;;;;17.77;100.00;100806.97;5080557;27;45232;-80
2023/03/19 00:55:02;;;;;;;;;9.00;8.67;;;;;17.77;100.00;100816.91;5079005;28;57212;-79
2023/03/19 00:57:27;;;;;;;;;9.00;8.33;;;;;17.75;100.00;100822.50;5079288;28;45360;-79
2023/03/19 00:59:52;;;;;;;;;10.33;9.33;;;;;17.81;100.00;100830.75;5080917;28;45314;-79
2023/03/19 01:02:17;;;;;;;;;9.33;9.33;;;;;17.73;100.00;100819.22;5079099;28;45993;-79
2023/03/19 01:04:43;;;;;;;;;9.00;9.00;;;;;17.80;100.00;100827.22;5080381;27;45319;-79
2023/03/19 01:07:08;;;;;;;;;11.33;9.00;;;;;17.84;100.00;100828.41;5080191;28;45307;-79
2023/03/19 01:09:34;;;;;;;;;9.00;9.00;;;;;17.76;100.00;100828.72;5079233;28;45390;-79
2023/03/19 01:12:03;;;;;;;;;8.33;8.00;;;;;17.79;100.00;100825.59;5079925;27;45557;-78
2023/03/19 01:14:29;;;;;;;;;10.00;9.00;;;;;17.87;100.00;100836.03;5079028;28;47499;-79
2023/03/19 01:16:55;;;;;;;;;8.33;8.33;;;;;17.78;100.00;100832.81;5079850;27;45353;-79
2023/03/19 01:19:21;;;;;;;;;9.00;9.00;;;;;17.79;100.00;100831.78;5080608;27;45333;-79
2023/03/19 01:21:48;;;;;;;;;3.33;3.33;;;;;17.85;100.00;100837.31;5080084;28;45596;-79
2023/03/19 01:24:15;;;;;;;;;9.33;9.00;;;;;17.93;100.00;100834.34;5080215;28;45374;-79
2023/03/19 01:26:40;;;;;;;;;9.00;9.00;;;;;17.94;100.00;100830.63;5078622;28;45361;-79
2023/03/19 01:29:06;;;;;;;;;9.33;9.33;;;;;17.87;100.00;100832.53;5079013;28;45464;-79
2023/03/19 01:31:31;;;;;;;;;8.33;8.33;;;;;17.90;100.00;100827.53;5075080;28;46105;-79
2023/03/19 01:33:56;;;;;;;;;9.00;9.00;;;;;17.83;100.00;100824.09;5070591;28;45321;-78
2023/03/19 01:36:22;;;;;;;;;7.33;7.33;;;;;17.96;100.00;100843.84;5083466;27;49506;-79
2023/03/19 01:38:47;;;;;;;;;11.00;9.00;;;;;17.90;100.00;100832.09;5088134;27;45402;-79
2023/03/19 01:41:13;;;;;;;;;11.33;11.00;;;;;18.02;100.00;100842.97;5078442;28;46118;-80
2023/03/19 01:43:38;;;;;;;;;9.67;9.67;;;;;18.02;100.00;100837.59;5078391;27;46992;-79
2023/03/19 01:46:11;;;;;;;;;7.33;6.33;;;;;17.91;100.00;100834.56;5078149;28;45686;-79
2023/03/19 01:48:42;;;;;;;;;14.00;10.50;;;;;17.95;100.00;100845.69;5079917;27;45259;-80
2023/03/19 01:51:11;;;;;;;;;10.00;10.00;;;;;17.99;100.00;100827.25;5078210;28;47165;-79
2023/03/19 01:53:39;;;;;;;;;11.00;8.33;;;;;17.88;100.00;100826.13;5078358;28;47380;-79
2023/03/19 01:56:13;;;;;;;;;8.33;8.33;;;;;17.95;100.00;100813.44;5079529;27;45220;-79
2023/03/19 01:58:42;;;;;;;;;8.00;8.00;;;;;17.97;100.00;100837.41;5077014;28;45275;-78
2023/03/19 02:01:08;;;;;;;;;10.67;10.67;;;;;17.82;100.00;100825.16;5078502;27;45336;-79
2023/03/19 02:03:36;;;;;;;;;7.33;7.33;;;;;17.78;100.00;100824.75;5079614;28;45850;-79
2023/03/19 02:06:01;;;;;;;;;10.33;10.33;;;;;17.72;100.00;100828.31;5079629;27;45389;-79
2023/03/19 02:08:28;;;;;;;;;10.00;10.00;;;;;17.80;100.00;100829.91;5079558;27;45538;-79
2023/03/19 02:10:54;;;;;;;;;8.00;8.00;;;;;17.87;100.00;100824.47;5079775;28;45463;-80
2023/03/19 02:13:21;;;;;;;;;10.33;10.00;;;;;17.78;100.00;100822.06;5079273;27;46415;-79
2023/03/19 02:15:47;;;;;;;;;10.67;9.00;;;;;17.70;100.00;100808.09;5078276;28;45292;-79
2023/03/19 02:18:14;;;;;;;;;10.33;9.33;;;;;17.88;100.00;100807.31;5079403;27;45311;-79
2023/03/19 02:20:52;;;;;;;;;10.67;9.33;;;;;17.84;100.00;100798.03;5079345;27;45250;-79
2023/03/19 02:23:31;;;;;;;;;9.00;9.00;;;;;17.82;100.00;100800.13;5079096;28;45349;-79
2023/03/19 02:26:10;;;;;;;;;9.33;7.33;;;;;17.75;100.00;100795.63;5079094;27;45464;-79
2023/03/19 02:28:40;;;;;;;;;0.00;0.00;;;;;17.60;100.00;100804.03;5077527;28;45418;-79
2023/03/19 02:31:06;;;;;;;;;9.67;9.33;;;;;17.51;100.00;100811.53;5065803;27;45509;-78
2023/03/19 02:33:31;;;;;;;;;10.00;10.00;;;;;17.41;100.00;100806.66;5079352;28;45342;-79
2023/03/19 02:35:57;;;;;;;;;14.00;11.00;;;;;17.44;100.00;100801.88;5077865;28;45331;-80
2023/03/19 02:38:25;;;;;;;;;10.67;9.33;;;;;17.41;100.00;100805.84;5079510;27;45313;-79
2023/03/19 02:40:58;;;;;;;;;9.00;9.00;;;;;17.39;100.00;100807.94;5078649;27;45434;-79
2023/03/19 02:43:24;;;;;;;;;9.00;9.00;;;;;17.36;100.00;100813.75;5066617;28;45331;-79
2023/03/19 02:45:49;;;;;;;;;9.67;9.67;;;;;17.40;100.00;100798.81;5078675;28;45449;-79
2023/03/19 02:48:14;;;;;;;;;10.00;10.00;;;;;17.26;100.00;100803.47;5077975;28;45449;-79
2023/03/19 02:50:40;;;;;;;;;9.67;9.67;;;;;17.28;100.00;100821.03;5078928;28;45530;-79
2023/03/19 02:53:05;;;;;;;;;9.00;9.00;;;;;17.20;100.00;100812.38;5077777;27;47348;-79
2023/03/19 02:55:31;;;;;;;;;10.33;10.33;;;;;17.20;100.00;100812.38;5076260;28;45323;-79
2023/03/19 02:57:56;;;;;;;;;11.67;10.33;;;;;17.20;100.00;100821.28;5066753;28;45496;-78
2023/03/19 03:00:21;;;;;;;;;10.67;10.00;;;;;17.19;100.00;100824.16;5077211;28;46151;-79
2023/03/19 03:02:47;;;;;;;;;9.00;9.00;;;;;17.22;100.00;100831.78;5078904;27;45428;-79
2023/03/19 03:05:13;;;;;;;;;10.67;10.67;;;;;17.36;100.00;100840.59;5077128;28;45469;-79
2023/03/19 03:07:39;;;;;;;;;13.33;11.67;;;;;17.24;100.00;100832.41;5077829;27;45464;-79
2023/03/19 03:10:05;;;;;;;;;9.33;9.33;;;;;17.26;100.00;100831.16;5079874;28;46008;-79
2023/03/19 03:12:31;;;;;;;;;9.00;9.00;;;;;17.25;100.00;100823.31;5082437;27;46633;-78
2023/03/19 03:14:56;;;;;;;;;9.67;8.67;;;;;17.26;100.00;100830.31;5081867;28;45255;-79
2023/03/19 03:17:22;;;;;;;;;11.00;11.00;;;;;17.29;100.00;100836.09;5082363;27;45901;-79
2023/03/19 03:19:47;;;;;;;;;9.33;8.00;;;;;17.25;100.00;100824.16;5080641;28;46112;-78
2023/03/19 03:22:12;;;;;;;;;10.00;9.67;;;;;17.35;100.00;100828.19;5082311;27;45999;-79
2023/03/19 03:24:38;;;;;;;;;11.00;11.00;;;;;17.38;100.00;100827.75;5082091;28;45369;-79
2023/03/19 03:27:03;;;;;;;;;12.00;11.00;;;;;17.46;100.00;100835.56;5082297;27;45342;-80
2023/03/19 03:29:29;;;;;;;;;10.00;10.00;;;;;17.45;100.00;100833.91;5081346;27;45436;-79
2023/03/19 03:31:54;;;;;;;;;12.00;12.00;;;;;17.51;100.00;100832.22;5069100;28;46183;-80
2023/03/19 03:34:20;;;;;;;;;9.33;9.33;;;;;17.52;100.00;100832.00;5081938;27;45370;-78
2023/03/19 03:36:45;;;;;;;;;12.33;12.33;;;;;17.48;100.00;100838.84;5081995;28;45336;-78
2023/03/19 03:39:12;;;;;;;;;10.00;10.00;;;;;17.51;100.00;100822.28;5081701;27;45422;-79
2023/03/19 03:41:38;;;;;;;;;10.33;10.33;;;;;17.57;100.00;100825.16;5081638;28;45232;-79
2023/03/19 03:44:03;;;;;;;;;10.67;10.67;;;;;17.51;100.00;100821.47;5081624;27;45314;-79
2023/03/19 03:46:28;;;;;;;;;11.67;10.33;;;;;17.74;100.00;100839.69;5082167;27;45220;-78
2023/03/19 03:48:54;;;;;;;;;11.33;10.67;;;;;17.77;100.00;100836.56;5080079;28;47646;-79
2023/03/19 03:51:21;;;;;;;;;10.67;9.67;;;;;17.89;100.00;100833.13;5082049;28;46215;-79
2023/03/19 03:53:46;;;;;;;;;11.33;11.00;;;;;17.95;100.00;100837.63;5080423;28;45283;-79
2023/03/19 03:56:11;;;;;;;;;11.00;11.00;;;;;17.83;100.00;100829.47;5080555;28;45313;-79
2023/03/19 03:58:37;;;;;;;;;11.00;11.00;;;;;17.67;100.00;100837.06;5081555;27;45519;-79
2023/03/19 04:01:02;;;;;;;;;13.00;12.00;;;;;17.66;100.00;100840.78;5080196;28;48133;-79
2023/03/19 04:03:27;;;;;;;;;12.33;11.67;;;;;17.71;100.00;100850.88;5081572;28;45359;-79
2023/03/19 04:05:53;;;;;;;;;12.33;11.00;;;;;17.64;100.00;100839.34;5079974;28;45380;-79
2023/03/19 04:08:18;;;;;;;;;13.33;13.33;;;;;17.71;100.00;100861.63;5081648;28;45987;-79
2023/03/19 04:10:43;;;;;;;;;12.00;12.00;;;;;17.60;100.00;100838.16;5088850;27;46298;-78
2023/03/19 04:13:10;;;;;;;;;13.67;13.67;;;;;17.74;100.00;100849.59;5083892;27;45459;-79
2023/03/19 04:15:36;;;;;;;;;12.00;11.67;;;;;17.71;100.00;100850.88;5080274;28;45425;-79
2023/03/19 04:18:02;;;;;;;;;13.67;13.67;;;;;17.87;100.00;100859.44;5081203;27;45474;-78
2023/03/19 04:20:27;;;;;;;;;12.00;11.67;;;;;17.87;100.00;100851.38;5080374;28;45607;-79
2023/03/19 04:22:53;;;;;;;;;13.33;13.33;;;;;17.91;100.00;100860.63;5080853;27;45323;-79
2023/03/19 04:25:18;;;;;;;;;12.67;12.67;;;;;17.73;100.00;100845.28;5081449;28;45446;-80
2023/03/19 04:27:45;;;;;;;;;11.00;10.00;;;;;17.75;100.00;100854.75;5079767;28;47006;-79
2023/03/19 04:30:11;;;;;;;;;12.33;11.00;;;;;17.92;100.00;100860.41;5079828;28;47371;-79
2023/03/19 04:32:37;;;;;;;;;14.67;14.67;;;;;18.53;100.00;100845.56;5081092;27;45218;-79
2023/03/19 04:35:02;;;;;;;;;11.00;11.00;;;;;17.92;100.00;100852.34;5079999;28;45361;-79
2023/03/19 04:37:28;;;;;;;;;13.33;13.33;;;;;18.00;100.00;100848.56;5080862;28;46801;-78
2023/03/19 04:39:54;;;;;;;;;14.00;14.00;;;;;17.99;100.00;100849.56;5080964;28;45414;-78
2023/03/19 04:42:19;;;;;;;;;13.33;13.33;;;;;17.99;100.00;100843.41;5080698;28;45490;-79
2023/03/19 04:44:44;;;;;;;;;12.00;12.00;;;;;17.95;100.00;100847.56;5079864;28;45407;-79
2023/03/19 04:47:10;;;;;;;;;16.00;14.00;;;;;18.01;100.00;100852.88;5080790;28;45560;-79
2023/03/19 04:49:35;;;;;;;;;14.00;14.00;;;;;18.05;100.00;100864.84;5078965;28;48735;-78
2023/03/19 04:52:01;;;;;;;;;15.67;15.67;;;;;17.94;100.00;100851.28;5079190;28;46062;-79
2023/03/19 04:54:27;;;;;;;;;12.00;12.00;;;;;17.94;100.00;100852.13;5079556;28;45362;-79
2023/03/19 04:56:53;;;;;;;;;15.00;13.67;;;;;17.96;100.00;100863.47;5080406;27;45691;-78
2023/03/19 04:59:18;;;;;;;;;12.67;12.67;;;;;17.92;100.00;100864.94;5079121;28;48065;-80
2023/03/19 05:01:44;;;;;;;;;16.67;16.67;;;;;18.00;100.00;100875.44;5079585;28;45436;-78
2023/03/19 05:04:09;;;;;;;;;10.00;10.00;;;;;18.03;100.00;100872.31;5080392;27;45307;-79
2023/03/19 05:06:36;;;;;;;;;12.00;11.67;;;;;18.06;100.00;100868.34;5080182;27;45496;-79
2023/03/19 05:09:02;;;;;;;;;11.33;10.67;;;;;18.05;100.00;100867.53;5078976;28;47149;-79
2023/03/19 05:11:28;;;;;;;;;14.33;13.00;;;;;18.01;100.00;100858.25;5080242;27;45496;-78
2023/03/19 05:13:53;;;;;;;;;14.00;14.00;;;;;17.94;100.00;100854.81;5078800;28;45336;-78
2023/03/19 05:16:19;;;;;;;;;14.33;14.33;;;;;17.98;100.00;100857.88;5078764;28;54120;-78
2023/03/19 05:18:44;;;;;;;;;12.33;12.33;;;;;18.07;100.00;100871.88;5079087;28;48036;-78
2023/03/19 05:21:11;;;;;;;;;10.67;10.67;;;;;18.07;100.00;100877.25;5080418;27;45414;-79
2023/03/19 05:23:37;;;;;;;;;13.33;13.00;;;;;18.09;100.00;100873.28;5080363;27;45356;-79
2023/03/19 05:26:03;;;;;;;;;12.67;12.00;;;;;18.08;100.00;100870.81;5080096;28;45363;-79
2023/03/19 05:28:28;;;;;;;;;14.00;14.00;;;;;18.07;100.00;100871.88;5079447;27;46330;-79
2023/03/19 05:30:54;;;;;;;;;12.33;12.00;;;;;17.95;100.00;100879.81;5067883;27;45239;-78
2023/03/19 05:33:21;;;;;;;;;14.00;13.33;;;;;18.00;100.00;100880.81;5079374;28;45212;-80
2023/03/19 05:35:46;;;;;;;;;14.67;14.67;;;;;18.09;100.00;100888.59;5078643;27;46936;-78
2023/03/19 05:38:12;;;;;;;;;15.33;15.00;;;;;18.04;100.00;100886.56;5078372;27;47079;-79
2023/03/19 05:40:40;;;;;;;;;17.00;14.67;;;;;18.16;100.00;100882.16;5078627;28;46247;-79
2023/03/19 05:43:06;;;;;;;;;15.00;15.00;;;;;18.17;100.00;100886.47;5079651;28;45394;-78
2023/03/19 05:45:31;;;;;;;;;14.00;13.33;;;;;18.00;100.00;100888.88;5079833;28;45563;-79
2023/03/19 05:47:57;;;;;;;;;17.33;16.67;;;;;17.99;100.00;100884.53;5079587;28;54307;-79
2023/03/19 05:50:22;;;;;;;;;17.33;15.33;;;;;18.19;100.00;100902.38;5067444;27;45314;-78
2023/03/19 05:52:47;;;;;;;;;17.00;16.00;;;;;18.22;100.00;100904.63;5080380;28;45247;-79
2023/03/19 05:55:12;;;;;;;;;15.67;15.00;;;;;18.12;100.00;100890.88;5087315;27;45284;-79
2023/03/19 05:57:38;;;;;;;;;15.67;15.33;;;;;18.04;100.00;100897.31;5082532;28;48331;-78
2023/03/19 06:00:05;;;;;;;;;12.00;11.00;;;;;17.97;100.00;100910.00;5084838;27;45443;-78
2023/03/19 06:02:31;;;;;;;;;16.67;15.67;;;;;17.98;100.00;100912.47;5084451;28;45393;-79
2023/03/19 06:04:56;;;;;;;;;14.67;14.67;;;;;17.90;100.00;100913.56;5083709;28;46306;-79
2023/03/19 06:07:21;;;;;;;;;17.00;15.33;;;;;17.89;100.00;100914.63;5083390;28;59623;-79
2023/03/19 06:09:47;;;;;;;;;17.33;12.33;;;;;17.83;100.00;100909.28;5071670;28;58296;-79
2023/03/19 06:12:12;;;;;;;;;13.00;13.00;;;;;17.83;100.00;100917.34;5085475;28;45605;-79
2023/03/19 06:14:37;;;;;;;;;15.00;13.00;;;;;17.81;100.00;100900.63;5083254;28;46703;-79
2023/03/19 06:17:03;;;;;;;;;12.67;12.67;;;;;17.88;100.00;100921.03;5085699;28;54845;-81
2023/03/19 06:19:28;;;;;;;;;13.33;12.33;;;;;17.81;100.00;100911.38;5082210;28;45273;-80
2023/03/19 06:21:53;;;;;;;;;13.67;12.67;;;;;17.71;100.00;100885.81;5078159;28;45856;-79
2023/03/19 06:24:18;;;;;;;;;11.67;11.67;;;;;17.89;100.00;100919.16;5078115;28;45309;-79
2023/03/19 06:26:44;;;;;;;;;17.33;15.00;;;;;17.82;100.00;100913.84;5085091;27;46276;-79
2023/03/19 06:29:09;;;;;;;;;15.67;15.33;;;;;17.77;100.00;100911.81;5074211;27;46389;-80
2023/03/19 06:31:35;;;;;;;;;14.33;14.00;;;;;17.87;100.00;100932.03;5084734;28;45444;-79
2023/03/19 06:34:00;;;;;;;;;18.67;18.00;;;;;17.92;100.00;100919.56;5088881;27;45551;-78
2023/03/19 06:36:25;;;;;;;;;15.67;15.67;;;;;17.86;100.00;100935.72;5076779;27;46684;-78
2023/03/19 06:38:51;;;;;;;;;19.33;19.00;;;;;17.82;100.00;100934.53;5091851;27;45418;-77
2023/03/19 06:41:16;;;;;;;;;17.33;15.67;;;;;17.74;100.00;100928.38;5087682;28;45240;-78
2023/03/19 06:43:41;;;;;;;;;20.00;20.00;;;;;17.72;100.00;100922.38;5088002;28;45236;-81
2023/03/19 06:46:08;;;;;;;;;21.33;20.00;;;;;17.75;100.00;100932.69;5084735;27;47621;-80
2023/03/19 06:48:33;;;;;;;;;20.33;19.67;;;;;17.72;100.00;100935.81;5086054;27;45298;-81
2023/03/19 06:51:00;;;;;;;;;24.00;23.00;;;;;17.70;100.00;100937.91;5072094;27;45361;-80
2023/03/19 06:53:26;;;;;;;;;25.00;23.00;;;;;17.79;100.00;100942.00;5086070;27;45534;-80
2023/03/19 06:55:51;;;;;;;;;25.33;23.33;;;;;17.66;100.00;100945.59;5085546;27;45511;-82
2023/03/19 06:58:17;;;;;;;;;24.00;24.00;;;;;17.68;100.00;100940.00;5086566;28;45854;-82
2023/03/19 07:00:42;;;;;;;;;29.33;26.00;;;;;17.61;100.00;100937.34;5087069;28;45217;-82
2023/03/19 07:03:09;;;;;;;;;24.00;24.00;;;;;17.77;100.00;100946.75;5087854;27;45582;-82
2023/03/19 07:05:34;;;;;;;;;28.67;28.67;;;;;17.76;100.00;100955.88;5074946;28;45488;-83
2023/03/19 07:08:00;;;;;;;;;25.00;25.00;;;;;17.75;100.00;100950.72;5074316;28;45470;-81
2023/03/19 07:10:25;;;;;;;;;29.33;29.33;;;;;17.76;100.00;100961.25;5083537;28;45347;-82
2023/03/19 07:12:51;;;;;;;;;27.33;26.00;;;;;17.70;100.00;100959.41;5085470;28;45396;-82
2023/03/19 07:15:16;;;;;;;;;27.00;27.00;;;;;17.70;100.00;100967.47;5083712;27;54937;-82
2023/03/19 07:17:44;;;;;;;;;28.33;27.67;;;;;17.68;100.00;100958.81;5085635;27;45248;-81
2023/03/19 07:20:10;;;;;;;;;26.67;26.67;;;;;17.74;100.00;100971.38;5083271;28;45264;-80
2023/03/19 07:22:35;;;;;;;;;24.00;24.00;;;;;17.73;100.00;100959.00;5081091;27;45384;-79
2023/03/19 07:25:01;;;;;;;;;23.33;21.33;;;;;17.86;100.00;100967.97;5085572;27;49929;-79
2023/03/19 07:27:26;;;;;;;;;25.00;22.67;;;;;17.88;100.00;100968.59;5081933;28;45339;-81
2023/03/19 07:29:52;;;;;;;;;24.00;22.33;;;;;17.92;100.00;100973.31;5078896;28;45469;-81
2023/03/19 07:32:17;;;;;;;;;21.33;21.33;;;;;17.99;100.00;100969.78;5078248;27;45667;-81
2023/03/19 07:34:42;;;;;;;;;24.33;24.33;;;;;17.96;100.00;100970.22;5083395;28;45661;-80
2023/03/19 07:37:08;;;;;;;;;23.00;21.00;;;;;18.08;100.00;100975.69;5087884;27;45374;-80
2023/03/19 07:39:33;;;;;;;;;24.00;22.00;;;;;18.11;100.00;100975.31;5071403;28;45396;-84
2023/03/19 07:41:59;;;;;;;;;20.67;19.00;;;;;18.16;100.00;100972.75;5067253;27;45656;-81
2023/03/19 07:44:25;;;;;;;;;20.00;19.67;;;;;18.27;100.00;100982.81;5074217;28;47513;-80
2023/03/19 07:46:50;;;;;;;;;21.67;19.00;;;;;18.26;100.00;100978.47;5083176;28;54225;-80
2023/03/19 07:49:16;;;;;;;;;19.67;19.67;;;;;18.42;100.00;100987.03;5083211;28;45466;-80
2023/03/19 07:51:41;;;;;;;;;24.00;22.33;;;;;18.44;100.00;100992.19;5083758;27;45561;-80
2023/03/19 07:54:06;;;;;;;;;23.67;23.67;;;;;18.34;100.00;100977.38;5083764;27;45374;-81
2023/03/19 07:56:32;;;;;;;;;20.67;20.67;;;;;18.50;100.00;100991.31;5078549;28;45422;-80
2023/03/19 07:58:58;;;;;;;;;18.67;17.67;;;;;18.45;100.00;100983.06;5080787;27;45450;-81
2023/03/19 08:01:24;;;;;;;;;19.00;18.33;;;;;18.54;100.00;100997.91;5080424;27;45221;-80
2023/03/19 08:03:49;;;;;;;;;19.67;19.33;;;;;18.41;100.00;100985.41;5078339;28;47324;-81
2023/03/19 08:06:15;;;;;;;;;23.00;23.00;;;;;18.35;100.00;100991.66;5072273;28;45342;-79
2023/03/19 08:08:40;;;;;;;;;19.67;19.67;;;;;18.38;100.00;100991.22;5069656;28;45908;-77
2023/03/19 08:11:06;;;;;;;;;25.67;22.33;;;;;18.37;100.00;100989.53;5070818;27;45208;-78
2023/03/19 08:13:31;;;;;;;;;22.00;20.33;;;;;18.41;100.00;100986.19;5080899;28;46893;-77
2023/03/19 08:15:57;;;;;;;;;24.33;22.33;;;;;18.45;100.00;100981.22;5082407;27;54654;-78
2023/03/19 08:18:22;;;;;;;;;19.67;19.67;;;;;18.35;100.00;100975.50;5079621;28;47794;-77
2023/03/19 08:20:47;;;;;;;;;23.00;21.33;;;;;18.49;100.00;100979.72;5080529;28;45400;-77
2023/03/19 08:23:13;;;;;;;;;25.67;24.33;;;;;18.68;100.00;100990.53;5079479;27;51413;-79
2023/03/19 08:25:39;;;;;;;;;21.33;20.67;;;;;18.65;100.00;100994.47;5080967;27;45346;-80
2023/03/19 08:28:06;;;;;;;;;26.67;24.67;;;;;18.65;100.00;100996.34;5079691;28;45527;-78
2023/03/19 08:30:31;;;;;;;;;24.00;23.00;;;;;18.61;100.00;100987.88;5069929;27;46615;-78
2023/03/19 08:32:57;;;;;;;;;22.67;22.33;;;;;18.50;100.00;100988.63;5060487;28;45284;-78
2023/03/19 08:35:25;;;;;;;;;20.00;19.00;;;;;18.53;100.00;100994.38;5061011;28;45305;-81
2023/03/19 08:37:51;;;;;;;;;21.33;17.00;;;;;18.69;100.00;100997.53;5068071;28;45617;-81
2023/03/19 08:40:17;;;;;;;;;21.00;20.00;;;;;18.74;100.00;101005.75;5080581;28;45487;-80
2023/03/19 08:42:42;;;;;;;;;17.33;17.33;;;;;18.83;100.00;100990.16;5067305;28;48373;-80
2023/03/19 08:45:09;;;;;;;;;19.00;18.00;;;;;18.99;100.00;100996.81;5077290;27;45442;-79
2023/03/19 08:47:35;;;;;;;;;20.00;20.00;;;;;19.01;100.00;100993.91;5077191;28;45409;-82
2023/03/19 08:50:00;;;;;;;;;17.67;16.33;;;;;19.02;100.00;101007.16;5080631;28;48860;-79
2023/03/19 08:52:26;;;;;;;;;12.67;12.67;;;;;19.04;100.00;101012.31;5077976;28;46944;-80
2023/03/19 08:54:51;;;;;;;;;14.67;14.67;;;;;19.00;100.00;101011.09;5070784;27;45891;-78
2023/03/19 08:57:16;;;;;;;;;14.33;14.33;;;;;18.97;100.00;101011.56;5069169;28;45520;-80
2023/03/19 08:59:42;;;;;;;;;15.33;14.67;;;;;19.10;100.00;101019.53;5066198;28;45465;-79
2023/03/19 09:02:09;;;;;;;;;16.67;15.33;;;;;19.11;100.00;101017.63;5071657;28;47223;-80
2023/03/19 09:04:37;;;;;;;;;14.33;13.33;;;;;19.23;100.00;101032.00;5078371;28;45354;-80
2023/03/19 09:07:03;;;;;;;;;17.33;16.00;;;;;19.03;100.00;101024.09;5074854;28;45423;-81
2023/03/19 09:09:28;;;;;;;;;15.33;14.67;;;;;19.05;100.00;101024.72;5079429;28;45388;-79
2023/03/19 09:11:54;;;;;;;;;16.00;16.00;;;;;19.13;100.00;101023.63;5066895;28;47153;-80
2023/03/19 09:14:19;;;;;;;;;18.00;17.67;;;;;19.34;100.00;101043.06;5062213;28;45350;-79
2023/03/19 09:16:44;;;;;;;;;16.33;16.00;;;;;19.45;100.00;101030.72;5059782;28;45520;-79
2023/03/19 09:19:10;;;;;;;;;13.00;13.00;;;;;19.30;100.00;101042.69;5065172;28;47569;-79
2023/03/19 09:21:35;;;;;;;;;14.67;14.67;;;;;19.53;100.00;101043.88;5075476;27;45986;-79
2023/03/19 09:24:01;;;;;;;;;15.00;14.00;;;;;19.24;100.00;101038.22;5078547;28;45303;-77
2023/03/19 09:26:27;;;;;;;;;14.67;14.00;;;;;19.24;100.00;101040.94;5075177;27;45489;-80
2023/03/19 09:28:52;;;;;;;;;14.67;14.67;;;;;19.28;100.00;101047.50;5070455;27;45484;-79
2023/03/19 09:31:18;;;;;;;;;10.67;10.67;;;;;19.21;100.00;101061.03;5077679;28;52520;-80
2023/03/19 09:33:43;;;;;;;;;11.67;11.00;;;;;19.14;99.45;101049.50;5077760;28;45406;-78
2023/03/19 09:36:08;;;;;;;;;11.00;11.00;;;;;18.87;99.68;101036.28;5077607;27;45256;-80
2023/03/19 09:38:34;;;;;;;;;12.33;10.33;;;;;19.09;100.00;101060.16;5074463;28;45547;-79
2023/03/19 09:41:19;;;;;;;;;11.00;9.33;;;;;19.05;100.00;101065.13;5078762;28;45418;-78
2023/03/19 09:43:56;;;;;;;;;15.67;15.00;;;;;18.88;98.74;101076.47;5074638;28;45280;-78
2023/03/19 09:46:45;;;;;;;;;15.67;13.67;;;;;19.09;100.00;101081.69;5078386;27;45418;-78
2023/03/19 09:49:22;;;;;;;;;13.33;13.00;;;;;19.10;100.00;101076.09;5064358;28;45520;-78
2023/03/19 09:51:56;;;;;;;;;12.67;12.67;;;;;19.16;99.01;101085.94;5091195;27;47430;-79
2023/03/19 09:54:28;;;;;;;;;10.00;10.00;;;;;19.23;100.00;101091.28;5078545;27;45262;-80
2023/03/19 09:56:54;;;;;;;;;13.33;12.00;;;;;19.32;98.83;101078.34;5078154;27;47818;-78
2023/03/19 09:59:22;;;;;;;;;12.33;12.33;;;;;19.50;99.76;101098.22;5076648;28;45491;-80
2023/03/19 10:01:57;;;;;;;;;16.33;16.00;;;;;19.59;97.41;101098.75;5094411;27;48672;-78
2023/03/19 10:04:43;;;;;;;;;15.33;15.33;;;;;19.63;97.73;101103.47;5078493;28;45389;-77
2023/03/19 10:07:14;;;;;;;;;23.00;23.00;;;;;19.65;96.72;101103.25;5077793;28;45529;-77
2023/03/19 10:09:55;;;;;;;;;17.67;17.33;;;;;19.57;96.06;101111.66;5077646;28;45497;-78
2023/03/19 10:12:38;;;;;;;;;15.00;15.00;;;;;19.38;94.56;101090.06;5076690;28;45363;-77
2023/03/19 10:15:31;;;;;;;;;12.00;11.33;;;;;19.41;95.33;101113.88;5093876;27;45872;-78
2023/03/19 10:18:06;;;;;;;;;14.33;10.67;;;;;19.40;95.09;101110.34;5069491;28;45513;-77
2023/03/19 10:20:47;;;;;;;;;11.00;9.33;;;;;19.57;95.40;101112.44;5074879;27;45469;-77
2023/03/19 10:23:31;;;;;;;;;9.00;9.00;;;;;19.54;93.96;101108.34;5077705;28;45393;-76
2023/03/19 10:25:58;;;;;;;;;9.00;9.00;;;;;19.50;93.19;101106.31;5079864;27;45991;-77
2023/03/19 10:28:27;;;;;;;;;8.00;8.00;;;;;19.45;93.36;101104.28;5091189;27;45468;-77
2023/03/19 10:31:27;;;;;;;;;14.33;14.33;;;;;19.38;92.87;101108.94;5076377;28;45402;-80
2023/03/19 10:34:30;;;;;;;;;10.00;10.00;;;;;19.28;92.41;101112.97;5070893;28;47043;-77
2023/03/19 10:37:04;;;;;;;;;11.00;10.67;;;;;19.20;92.46;101115.97;5078216;28;45280;-76
2023/03/19 10:39:32;;;;;;;;;10.00;10.00;;;;;19.17;93.83;101121.81;5077484;28;45315;-77
2023/03/19 10:42:00;;;;;;;;;12.00;10.33;;;;;19.20;93.18;101118.66;5074365;27;45581;-76
2023/03/19 10:44:33;;;;;;;;;13.00;12.33;;;;;19.18;93.43;101123.44;5077826;28;45544;-76
2023/03/19 10:47:10;;;;;;;;;11.33;11.33;;;;;19.10;92.99;101121.88;5076749;28;45394;-76
2023/03/19 10:49:35;;;;;;;;;11.33;11.33;;;;;19.08;93.90;101123.97;5078326;27;45338;-77
2023/03/19 10:52:01;;;;;;;;;13.00;12.00;;;;;19.03;93.90;101126.44;5064848;28;45388;-77
2023/03/19 10:54:27;;;;;;;;;11.67;10.67;;;;;18.78;95.02;101128.13;5074380;28;46317;-79
2023/03/19 10:56:59;;;;;;;;;8.33;8.33;;;;;18.56;100.00;101146.53;5071438;27;45926;-78
2023/03/19 10:59:31;;;;;;;;;8.33;8.33;;;;;18.38;100.00;101141.88;5069705;28;45578;-79
2023/03/19 11:02:01;;;;;;;;;9.00;7.33;;;;;18.36;100.00;101138.59;5073609;28;45442;-79
2023/03/19 11:04:28;;;;;;;;;8.67;8.67;;;;;18.51;100.00;101140.97;5077287;28;47307;-78
2023/03/19 11:07:00;;;;;;;;;7.67;7.67;;;;;18.66;100.00;101148.72;5065966;27;45406;-78